Time;durP1;ratioP1;P1;durP2;ratioP2;P2;SDS_P1;SDS_P2;PMS_P1;PMS_P2;Temp;Humidity;BMP_temperature;BMP_pressure;BME280_temperature;BME280_humidity;BME280_pressure;Samples;Min_cycle;Max_cycle;Signal;HPM_P1;HPM_P2
2023/04/23 00:01:01;;;;;;;110.67;65.33;;;;;;;;;;5022324;28;20555;-71
2023/04/23 00:03:27;;;;;;;102.87;62.07;;;;;;;;;;5022150;28;20305;-70
2023/04/23 00:05:56;;;;;;;106.00;61.83;;;;;;;;;;5020097;28;20183;-70
2023/04/23 00:08:22;;;;;;;108.17;61.70;;;;;;;;;;5018650;28;20262;-71
2023/04/23 00:10:49;;;;;;;102.90;61.80;;;;;;;;;;5057766;23;20186;-68
2023/04/23 00:13:15;;;;;;;101.53;62.97;;;;;;;;;;5016928;28;20199;-70
2023/04/23 00:15:41;;;;;;;108.87;62.77;;;;;;;;;;5016908;28;20701;-69
2023/04/23 00:18:07;;;;;;;107.27;63.50;;;;;;;;;;4998688;28;20564;-71
2023/04/23 00:20:34;;;;;;;109.80;63.40;;;;;;;;;;4998536;28;20190;-69
2023/04/23 00:23:00;;;;;;;111.63;63.47;;;;;;;;;;4998668;28;20279;-70
2023/04/23 00:25:26;;;;;;;109.50;65.00;;;;;;;;;;5016368;28;20616;-68
2023/04/23 00:27:52;;;;;;;115.47;63.43;;;;;;;;;;4998791;28;20307;-70
2023/04/23 00:30:18;;;;;;;110.30;65.23;;;;;;;;;;4998739;28;20183;-67
2023/04/23 00:32:44;;;;;;;107.20;62.07;;;;;;;;;;4998377;28;20192;-67
2023/04/23 00:35:10;;;;;;;108.70;65.90;;;;;;;;;;5015975;28;20180;-70
2023/04/23 00:37:36;;;;;;;105.33;62.67;;;;;;;;;;5016403;28;20237;-68
2023/04/23 00:40:03;;;;;;;105.43;64.03;;;;;;;;;;5015760;28;20180;-69
2023/04/23 00:42:29;;;;;;;108.37;64.93;;;;;;;;;;4998158;28;20207;-69
2023/04/23 00:44:55;;;;;;;112.30;63.93;;;;;;;;;;5015832;28;20184;-70
2023/04/23 00:47:22;;;;;;;110.63;63.60;;;;;;;;;;5016016;28;20215;-68
2023/04/23 00:49:49;;;;;;;109.33;61.17;;;;;;;;;;5015611;28;20172;-69
2023/04/23 00:52:15;;;;;;;102.70;61.10;;;;;;;;;;5015628;28;20222;-68
2023/04/23 00:54:41;;;;;;;98.70;60.07;;;;;;;;;;5016446;28;20552;-68
2023/04/23 00:57:07;;;;;;;92.43;57.70;;;;;;;;;;5016132;28;20246;-69
2023/04/23 00:59:34;;;;;;;96.33;58.33;;;;;;;;;;4998302;28;20646;-69
2023/04/23 01:02:00;;;;;;;89.50;56.77;;;;;;;;;;5015395;28;20204;-69
2023/04/23 01:04:28;;;;;;;86.97;55.03;;;;;;;;;;4997899;28;20339;-68
2023/04/23 01:06:54;;;;;;;79.63;52.70;;;;;;;;;;5016297;28;20553;-68
2023/04/23 01:09:21;;;;;;;79.87;53.47;;;;;;;;;;4998308;28;20207;-68
2023/04/23 01:11:48;;;;;;;79.40;52.87;;;;;;;;;;5015456;28;20211;-69
2023/04/23 01:14:14;;;;;;;79.70;51.97;;;;;;;;;;5016187;28;20639;-69
2023/04/23 01:16:41;;;;;;;78.57;51.83;;;;;;;;;;4997924;28;20548;-69
2023/04/23 01:19:07;;;;;;;80.60;52.93;;;;;;;;;;5015946;28;20187;-68
2023/04/23 01:21:34;;;;;;;92.13;56.37;;;;;;;;;;4997555;28;20210;-70
2023/04/23 01:24:01;;;;;;;82.90;54.30;;;;;;;;;;4998590;28;20657;-69
2023/04/23 01:26:27;;;;;;;88.63;57.07;;;;;;;;;;5016423;28;20218;-69
2023/04/23 01:28:53;;;;;;;85.47;54.53;;;;;;;;;;5015670;28;20247;-70
2023/04/23 01:31:19;;;;;;;88.57;54.83;;;;;;;;;;5015425;28;20204;-69
2023/04/23 01:33:45;;;;;;;86.47;56.13;;;;;;;;;;5015137;28;20245;-70
2023/04/23 01:36:12;;;;;;;81.47;52.00;;;;;;;;;;4997197;28;20641;-70
2023/04/23 01:38:38;;;;;;;82.87;52.03;;;;;;;;;;4997257;28;20667;-70
2023/04/23 01:41:04;;;;;;;79.13;50.47;;;;;;;;;;4997231;28;20241;-70
2023/04/23 01:43:31;;;;;;;75.77;50.77;;;;;;;;;;5014831;28;20180;-70
2023/04/23 01:45:58;;;;;;;80.40;51.43;;;;;;;;;;4996937;28;20533;-70
2023/04/23 01:48:24;;;;;;;77.77;51.63;;;;;;;;;;5014835;28;20196;-69
2023/04/23 01:51:00;;;;;;;78.50;50.90;;;;;;;;;;5014796;28;20287;-69
2023/04/23 01:53:26;;;;;;;78.43;49.80;;;;;;;;;;5015264;28;20160;-69
2023/04/23 01:55:52;;;;;;;74.43;50.40;;;;;;;;;;5014972;28;20173;-68
2023/04/23 01:58:18;;;;;;;74.40;50.50;;;;;;;;;;5014457;28;20262;-68
2023/04/23 02:00:44;;;;;;;68.93;48.03;;;;;;;;;;4996553;28;20642;-68
2023/04/23 02:03:10;;;;;;;78.03;50.60;;;;;;;;;;5014467;28;20191;-68
2023/04/23 02:05:36;;;;;;;73.23;49.33;;;;;;;;;;4996513;28;20180;-68
2023/04/23 02:08:02;;;;;;;76.60;51.13;;;;;;;;;;4996497;28;20238;-68
2023/04/23 02:10:30;;;;;;;74.03;49.13;;;;;;;;;;4996361;28;20180;-70
2023/04/23 02:12:57;;;;;;;78.93;50.90;;;;;;;;;;5014465;28;20184;-68
2023/04/23 02:15:23;;;;;;;83.27;51.90;;;;;;;;;;5014156;28;20187;-69
2023/04/23 02:17:52;;;;;;;75.67;50.60;;;;;;;;;;5014599;28;20543;-69
2023/04/23 02:20:18;;;;;;;86.93;49.50;;;;;;;;;;5013980;28;20176;-68
2023/04/23 02:22:45;;;;;;;82.87;49.80;;;;;;;;;;5013776;28;20200;-68
2023/04/23 02:25:14;;;;;;;73.73;49.73;;;;;;;;;;5013999;28;20176;-68
2023/04/23 02:27:40;;;;;;;79.90;50.03;;;;;;;;;;5014065;28;20207;-69
2023/04/23 02:30:07;;;;;;;83.03;51.27;;;;;;;;;;5013134;28;20186;-68
2023/04/23 02:32:33;;;;;;;83.67;50.03;;;;;;;;;;5013639;28;20673;-68
2023/04/23 02:35:00;;;;;;;81.20;51.27;;;;;;;;;;5013854;28;20180;-68
2023/04/23 02:37:27;;;;;;;85.50;51.50;;;;;;;;;;4996100;28;20176;-68
2023/04/23 02:39:53;;;;;;;84.83;51.30;;;;;;;;;;5013639;28;20176;-70
2023/04/23 02:42:18;;;;;;;83.93;51.13;;;;;;;;;;4996007;28;20196;-68
2023/04/23 02:44:44;;;;;;;84.20;52.20;;;;;;;;;;5014171;28;20585;-68
2023/04/23 02:47:10;;;;;;;85.07;51.30;;;;;;;;;;5013472;28;20235;-68
2023/04/23 02:49:36;;;;;;;84.43;51.77;;;;;;;;;;5013765;28;20192;-68
2023/04/23 02:52:03;;;;;;;85.60;52.53;;;;;;;;;;5013461;28;20253;-68
2023/04/23 02:54:31;;;;;;;87.47;52.90;;;;;;;;;;4995989;28;20599;-68
2023/04/23 02:56:57;;;;;;;90.77;53.70;;;;;;;;;;5014156;28;20175;-68
2023/04/23 02:59:23;;;;;;;85.90;53.37;;;;;;;;;;5013721;28;20171;-69
2023/04/23 03:01:50;;;;;;;83.50;51.33;;;;;;;;;;4995819;28;20210;-69
2023/04/23 03:04:17;;;;;;;81.10;51.03;;;;;;;;;;4995947;28;20184;-68
2023/04/23 03:06:42;;;;;;;83.83;51.10;;;;;;;;;;4996293;28;20184;-68
2023/04/23 03:09:08;;;;;;;78.63;49.93;;;;;;;;;;4995858;28;20708;-68
2023/04/23 03:11:34;;;;;;;85.43;51.60;;;;;;;;;;5013599;28;20218;-68
2023/04/23 03:14:00;;;;;;;87.40;50.80;;;;;;;;;;4995837;28;20602;-70
2023/04/23 03:16:27;;;;;;;91.50;54.67;;;;;;;;;;5013237;28;20187;-68
2023/04/23 03:18:53;;;;;;;86.17;54.27;;;;;;;;;;5013149;28;20263;-69
2023/04/23 03:21:19;;;;;;;87.37;54.13;;;;;;;;;;5013277;28;20639;-71
2023/04/23 03:23:45;;;;;;;91.43;53.60;;;;;;;;;;5013442;28;20184;-68
2023/04/23 03:26:11;;;;;;;91.07;53.73;;;;;;;;;;4995613;28;20180;-68
2023/04/23 03:28:37;;;;;;;93.47;54.40;;;;;;;;;;5013377;28;20210;-68
2023/04/23 03:31:03;;;;;;;83.67;51.20;;;;;;;;;;5013068;28;20192;-68
2023/04/23 03:33:29;;;;;;;84.97;53.67;;;;;;;;;;5013626;28;20175;-68
2023/04/23 03:35:55;;;;;;;81.10;53.27;;;;;;;;;;5013045;28;20176;-68
2023/04/23 03:38:21;;;;;;;85.57;53.33;;;;;;;;;;5013061;28;20180;-68
2023/04/23 03:40:47;;;;;;;85.43;53.43;;;;;;;;;;5014796;28;20187;-68
2023/04/23 03:43:13;;;;;;;85.17;53.93;;;;;;;;;;4999180;28;20184;-68
2023/04/23 03:45:38;;;;;;;89.43;54.87;;;;;;;;;;5016872;28;20651;-68
2023/04/23 03:48:04;;;;;;;92.67;54.37;;;;;;;;;;5017174;28;20643;-68
2023/04/23 03:50:33;;;;;;;91.20;53.77;;;;;;;;;;5016580;28;20642;-68
2023/04/23 03:52:59;;;;;;;90.03;53.30;;;;;;;;;;4998971;28;20202;-68
2023/04/23 03:55:25;;;;;;;86.50;54.10;;;;;;;;;;4998948;28;20237;-68
2023/04/23 03:57:51;;;;;;;83.70;52.83;;;;;;;;;;5016479;28;20188;-68
2023/04/23 04:00:17;;;;;;;85.80;55.57;;;;;;;;;;5016391;28;20203;-68
2023/04/23 04:02:43;;;;;;;84.63;54.23;;;;;;;;;;4999329;28;20253;-68
2023/04/23 04:05:12;;;;;;;84.87;52.97;;;;;;;;;;5016465;28;20176;-68
2023/04/23 04:07:38;;;;;;;85.60;53.87;;;;;;;;;;4998594;28;20231;-68
2023/04/23 04:10:05;;;;;;;80.63;52.13;;;;;;;;;;5016488;28;20271;-68
2023/04/23 04:12:31;;;;;;;85.17;52.43;;;;;;;;;;5016143;28;20221;-68
2023/04/23 04:14:57;;;;;;;86.33;52.33;;;;;;;;;;5016476;28;20639;-67
2023/04/23 04:17:23;;;;;;;84.90;54.07;;;;;;;;;;5016146;28;20176;-68
2023/04/23 04:19:49;;;;;;;84.67;52.63;;;;;;;;;;5016515;28;20190;-67
2023/04/23 04:22:15;;;;;;;86.03;52.70;;;;;;;;;;5016189;28;20211;-69
2023/04/23 04:24:42;;;;;;;87.50;53.23;;;;;;;;;;4998608;28;20214;-68
2023/04/23 04:27:08;;;;;;;83.43;53.77;;;;;;;;;;5016201;28;20172;-68
2023/04/23 04:29:34;;;;;;;77.23;51.60;;;;;;;;;;5016073;28;20287;-68
2023/04/23 04:32:01;;;;;;;78.53;52.43;;;;;;;;;;4998140;28;20250;-68
2023/04/23 04:34:27;;;;;;;89.43;53.13;;;;;;;;;;5016288;28;20646;-67
2023/04/23 04:36:53;;;;;;;84.77;52.70;;;;;;;;;;4998072;28;20183;-68
2023/04/23 04:39:19;;;;;;;86.43;53.97;;;;;;;;;;5015980;28;20183;-68
2023/04/23 04:41:46;;;;;;;82.67;52.23;;;;;;;;;;4998263;28;20223;-68
2023/04/23 04:44:13;;;;;;;78.57;51.27;;;;;;;;;;4998229;28;20180;-68
2023/04/23 04:46:39;;;;;;;77.47;51.93;;;;;;;;;;5016412;28;20211;-68
2023/04/23 04:49:11;;;;;;;78.37;51.43;;;;;;;;;;4998295;28;20247;-68
2023/04/23 04:51:38;;;;;;;73.83;50.13;;;;;;;;;;5014904;28;20202;-69
2023/04/23 04:54:05;;;;;;;71.70;48.63;;;;;;;;;;5015342;28;20226;-69
2023/04/23 04:56:31;;;;;;;75.10;48.97;;;;;;;;;;5015616;28;20188;-68
2023/04/23 04:58:57;;;;;;;78.63;50.00;;;;;;;;;;5015557;28;20184;-68
2023/04/23 05:01:24;;;;;;;74.83;51.17;;;;;;;;;;4997614;28;20204;-69
2023/04/23 05:03:50;;;;;;;74.50;51.10;;;;;;;;;;5015444;28;20180;-69
2023/04/23 05:06:16;;;;;;;72.77;48.83;;;;;;;;;;5015195;28;20187;-69
2023/04/23 05:08:46;;;;;;;61.90;45.60;;;;;;;;;;5015207;28;20206;-67
2023/04/23 05:11:12;;;;;;;59.87;44.17;;;;;;;;;;5015317;28;20211;-68
2023/04/23 05:13:38;;;;;;;58.07;41.90;;;;;;;;;;4997729;28;20179;-68
2023/04/23 05:16:05;;;;;;;51.43;40.90;;;;;;;;;;5015149;28;20180;-68
2023/04/23 05:18:30;;;;;;;51.70;40.37;;;;;;;;;;4997552;28;20241;-68
2023/04/23 05:20:56;;;;;;;51.87;40.03;;;;;;;;;;5015298;28;20291;-68
2023/04/23 05:23:22;;;;;;;48.97;40.17;;;;;;;;;;4997381;28;20188;-68
2023/04/23 05:25:50;;;;;;;41.70;35.93;;;;;;;;;;4997520;28;20184;-68
2023/04/23 05:28:16;;;;;;;46.90;37.10;;;;;;;;;;4997273;28;20581;-68
2023/04/23 05:30:42;;;;;;;45.53;37.60;;;;;;;;;;4997487;28;20187;-69
2023/04/23 05:33:08;;;;;;;47.03;36.40;;;;;;;;;;5015137;28;20179;-68
2023/04/23 05:35:35;;;;;;;46.30;36.40;;;;;;;;;;5015358;28;20176;-68
2023/04/23 05:38:01;;;;;;;43.47;35.17;;;;;;;;;;5014840;28;20183;-68
2023/04/23 05:40:27;;;;;;;43.97;35.27;;;;;;;;;;5014717;28;20179;-68
2023/04/23 05:42:53;;;;;;;41.00;34.57;;;;;;;;;;5015271;28;20189;-69
2023/04/23 05:45:20;;;;;;;38.77;31.10;;;;;;;;;;4997307;28;20215;-68
2023/04/23 05:47:46;;;;;;;42.77;33.07;;;;;;;;;;5015037;28;20206;-69
2023/04/23 05:50:12;;;;;;;37.17;30.33;;;;;;;;;;5014667;28;20546;-69
2023/04/23 05:52:38;;;;;;;32.40;28.97;;;;;;;;;;4996732;28;20199;-69
2023/04/23 05:55:04;;;;;;;32.17;28.53;;;;;;;;;;4996946;28;20202;-68
2023/04/23 05:57:30;;;;;;;29.37;26.17;;;;;;;;;;5014215;28;20176;-68
2023/04/23 05:59:56;;;;;;;29.30;26.23;;;;;;;;;;5014279;28;20225;-68
2023/04/23 06:02:22;;;;;;;34.00;27.30;;;;;;;;;;5014125;28;20655;-67
2023/04/23 06:04:48;;;;;;;30.53;27.23;;;;;;;;;;5013451;28;20642;-68
2023/04/23 06:07:14;;;;;;;29.30;26.07;;;;;;;;;;4996482;28;20180;-69
2023/04/23 06:09:40;;;;;;;26.80;23.97;;;;;;;;;;4996326;28;20306;-68
2023/04/23 06:12:06;;;;;;;27.00;24.07;;;;;;;;;;4996292;28;20221;-68
2023/04/23 06:14:32;;;;;;;25.07;22.47;;;;;;;;;;4996463;28;20187;-68
2023/04/23 06:16:58;;;;;;;25.70;22.87;;;;;;;;;;4996474;28;20270;-68
2023/04/23 06:19:26;;;;;;;25.10;22.23;;;;;;;;;;5014314;28;20238;-69
2023/04/23 06:21:52;;;;;;;24.00;21.47;;;;;;;;;;5014056;28;20681;-68
2023/04/23 06:24:18;;;;;;;24.23;21.73;;;;;;;;;;4996478;28;20211;-68
2023/04/23 06:26:43;;;;;;;24.80;22.20;;;;;;;;;;5013956;28;20222;-68
2023/04/23 06:29:09;;;;;;;23.53;20.97;;;;;;;;;;5013941;28;20226;-68
2023/04/23 06:31:35;;;;;;;22.73;20.43;;;;;;;;;;4996360;28;20554;-68
2023/04/23 06:34:02;;;;;;;22.47;20.17;;;;;;;;;;5013962;28;20183;-68
2023/04/23 06:36:28;;;;;;;24.20;21.60;;;;;;;;;;4996227;28;20179;-68
2023/04/23 06:38:54;;;;;;;23.03;20.60;;;;;;;;;;5044989;23;20312;-72
2023/04/23 06:41:20;;;;;;;22.00;19.57;;;;;;;;;;5015486;28;20210;-71
2023/04/23 06:43:47;;;;;;;22.67;18.90;;;;;;;;;;5015473;28;20171;-71
2023/04/23 06:46:13;;;;;;;22.33;19.60;;;;;;;;;;5033210;28;20637;-71
2023/04/23 06:48:39;;;;;;;25.20;19.90;;;;;;;;;;5015407;28;20207;-72
2023/04/23 06:51:05;;;;;;;21.87;19.57;;;;;;;;;;5015423;28;20237;-72
2023/04/23 06:53:31;;;;;;;22.30;20.00;;;;;;;;;;5032939;28;20262;-71
2023/04/23 06:55:57;;;;;;;22.23;19.93;;;;;;;;;;5033077;28;20609;-71
2023/04/23 06:58:31;;;;;;;20.37;18.13;;;;;;;;;;5015781;28;20233;-73
2023/04/23 07:01:00;;;;;;;21.77;17.33;;;;;;;;;;5015452;28;20175;-71
2023/04/23 07:03:29;;;;;;;17.97;16.27;;;;;;;;;;5033250;28;20199;-71
2023/04/23 07:05:55;;;;;;;17.90;15.77;;;;;;;;;;5015201;28;20225;-72
2023/04/23 07:08:21;;;;;;;17.63;15.87;;;;;;;;;;5032812;28;20234;-73
2023/04/23 07:10:47;;;;;;;16.27;14.67;;;;;;;;;;5015367;28;20229;-72
2023/04/23 07:13:13;;;;;;;15.70;13.43;;;;;;;;;;5032874;28;20179;-72
2023/04/23 07:15:40;;;;;;;13.60;12.07;;;;;;;;;;5016580;28;20266;-71
2023/04/23 07:18:06;;;;;;;14.70;13.20;;;;;;;;;;5019135;28;20253;-71
2023/04/23 07:20:32;;;;;;;17.07;13.30;;;;;;;;;;5036864;28;20184;-72
2023/04/23 07:22:59;;;;;;;12.17;10.93;;;;;;;;;;5036817;28;20179;-71
2023/04/23 07:25:26;;;;;;;13.33;12.03;;;;;;;;;;5019043;28;20186;-72
2023/04/23 07:27:53;;;;;;;13.50;12.10;;;;;;;;;;5036730;28;20202;-72
2023/04/23 07:30:19;;;;;;;14.80;12.17;;;;;;;;;;5037071;28;20225;-72
2023/04/23 07:32:45;;;;;;;11.57;10.47;;;;;;;;;;5036682;28;20183;-70
2023/04/23 07:35:13;;;;;;;11.70;10.60;;;;;;;;;;5019332;28;20223;-70
2023/04/23 07:37:39;;;;;;;12.77;10.30;;;;;;;;;;5018903;28;20680;-70
2023/04/23 07:40:07;;;;;;;13.70;11.43;;;;;;;;;;5018687;28;20701;-70
2023/04/23 07:42:33;;;;;;;17.00;12.30;;;;;;;;;;5018635;28;20229;-70
2023/04/23 07:44:59;;;;;;;12.57;10.93;;;;;;;;;;5018960;28;20595;-70
2023/04/23 07:47:25;;;;;;;15.80;11.07;;;;;;;;;;5036413;28;20532;-70
2023/04/23 07:49:51;;;;;;;16.47;10.60;;;;;;;;;;5018599;28;20259;-70
2023/04/23 07:52:17;;;;;;;12.13;10.83;;;;;;;;;;5036484;28;20208;-70
2023/04/23 07:54:43;;;;;;;11.33;10.13;;;;;;;;;;5036526;28;20171;-70
2023/04/23 07:57:10;;;;;;;11.20;9.37;;;;;;;;;;5036604;28;20690;-70
2023/04/23 07:59:37;;;;;;;11.37;9.63;;;;;;;;;;5018610;28;20226;-70
2023/04/23 08:02:04;;;;;;;10.70;8.33;;;;;;;;;;5036147;28;20764;-70
2023/04/23 08:04:29;;;;;;;9.73;8.73;;;;;;;;;;5036371;28;20186;-70
2023/04/23 08:06:55;;;;;;;11.70;9.03;;;;;;;;;;5036037;28;20183;-69
2023/04/23 08:09:21;;;;;;;9.67;8.77;;;;;;;;;;5018293;28;20304;-70
2023/04/23 08:11:47;;;;;;;9.83;8.93;;;;;;;;;;5036195;28;20179;-70
2023/04/23 08:14:14;;;;;;;10.20;9.23;;;;;;;;;;5018273;28;20179;-70
2023/04/23 08:16:40;;;;;;;10.67;8.10;;;;;;;;;;5035791;28;20171;-70
2023/04/23 08:19:06;;;;;;;9.30;8.40;;;;;;;;;;5017930;28;20230;-70
2023/04/23 08:21:32;;;;;;;11.53;7.80;;;;;;;;;;5036009;28;20250;-70
2023/04/23 08:23:58;;;;;;;11.73;8.03;;;;;;;;;;5017936;28;20277;-70
2023/04/23 08:26:25;;;;;;;12.70;7.63;;;;;;;;;;5035083;28;20180;-70
2023/04/23 08:28:51;;;;;;;8.30;7.20;;;;;;;;;;5035579;28;20215;-70
2023/04/23 08:31:17;;;;;;;10.50;6.93;;;;;;;;;;5035733;28;20179;-70
2023/04/23 08:33:43;;;;;;;8.63;7.73;;;;;;;;;;5035714;28;20225;-70
2023/04/23 08:36:09;;;;;;;10.80;7.50;;;;;;;;;;5035563;28;20176;-70
2023/04/23 08:38:35;;;;;;;12.17;6.87;;;;;;;;;;5017685;28;20221;-73
2023/04/23 08:41:02;;;;;;;8.90;6.37;;;;;;;;;;5035643;28;20163;-70
2023/04/23 08:43:31;;;;;;;9.20;6.57;;;;;;;;;;5017665;28;20186;-70
2023/04/23 08:46:03;;;;;;;6.93;5.10;;;;;;;;;;5017472;28;20565;-70
2023/04/23 08:48:29;;;;;;;7.63;5.53;;;;;;;;;;5035509;28;20587;-70
2023/04/23 08:50:56;;;;;;;8.63;5.40;;;;;;;;;;5035804;28;20179;-73
2023/04/23 08:53:26;;;;;;;7.93;5.90;;;;;;;;;;5034897;28;20259;-70
2023/04/23 08:55:53;;;;;;;9.67;6.03;;;;;;;;;;5017797;28;20175;-70
2023/04/23 08:58:20;;;;;;;63.40;18.40;;;;;;;;;;5017216;28;20298;-70
2023/04/23 09:00:48;;;;;;;15.27;7.27;;;;;;;;;;5034952;28;20351;-70
2023/04/23 09:03:15;;;;;;;12.53;6.00;;;;;;;;;;5035649;28;20179;-70
2023/04/23 09:05:41;;;;;;;7.93;4.33;;;;;;;;;;5017370;28;20613;-70
2023/04/23 09:08:07;;;;;;;6.17;4.67;;;;;;;;;;5017012;28;20669;-70
2023/04/23 09:10:36;;;;;;;9.30;4.00;;;;;;;;;;5034965;28;20206;-70
2023/04/23 09:13:02;;;;;;;7.67;4.40;;;;;;;;;;5017051;28;20645;-70
2023/04/23 09:15:28;;;;;;;7.60;4.20;;;;;;;;;;5017067;28;20241;-70
2023/04/23 09:17:54;;;;;;;7.27;4.70;;;;;;;;;;5016821;28;20187;-71
2023/04/23 09:20:20;;;;;;;8.93;4.30;;;;;;;;;;5018043;28;20182;-71
2023/04/23 09:22:47;;;;;;;7.77;4.43;;;;;;;;;;5017732;28;20367;-70
2023/04/23 09:25:15;;;;;;;7.57;3.67;;;;;;;;;;5035386;28;20178;-70
2023/04/23 09:27:41;;;;;;;7.27;3.60;;;;;;;;;;5017154;28;20183;-71
2023/04/23 09:30:08;;;;;;;7.60;4.10;;;;;;;;;;5034505;28;20673;-71
2023/04/23 09:32:35;;;;;;;8.50;3.83;;;;;;;;;;5035164;28;20179;-70
2023/04/23 09:35:05;;;;;;;8.53;4.77;;;;;;;;;;5016449;28;20707;-71
2023/04/23 09:37:31;;;;;;;6.57;4.00;;;;;;;;;;5016543;28;20179;-71
2023/04/23 09:40:09;;;;;;;6.63;4.60;;;;;;;;;;5016029;28;20224;-71
2023/04/23 09:42:36;;;;;;;8.20;4.27;;;;;;;;;;5034746;28;20229;-72
2023/04/23 09:45:04;;;;;;;8.90;4.27;;;;;;;;;;5016507;28;20183;-71
2023/04/23 09:47:40;;;;;;;7.50;3.93;;;;;;;;;;5034092;28;20210;-71
2023/04/23 09:50:09;;;;;;;7.70;3.50;;;;;;;;;;5016083;28;20695;-71
2023/04/23 09:52:37;;;;;;;7.50;3.57;;;;;;;;;;5016167;28;20175;-71
2023/04/23 09:55:04;;;;;;;6.80;3.10;;;;;;;;;;5034172;28;20177;-71
2023/04/23 09:57:30;;;;;;;6.17;3.30;;;;;;;;;;5033691;28;20175;-71
2023/04/23 09:59:56;;;;;;;10.77;3.80;;;;;;;;;;5033998;28;20305;-71
2023/04/23 10:02:32;;;;;;;5.67;3.30;;;;;;;;;;5016205;28;20179;-71
2023/04/23 10:04:58;;;;;;;5.80;3.47;;;;;;;;;;5034384;28;20174;-71
2023/04/23 10:07:24;;;;;;;5.63;3.23;;;;;;;;;;5033817;28;20201;-71
2023/04/23 10:09:50;;;;;;;5.57;2.90;;;;;;;;;;5033684;28;20237;-71
2023/04/23 10:12:16;;;;;;;7.87;3.33;;;;;;;;;;5016006;28;20241;-71
2023/04/23 10:14:43;;;;;;;11.23;3.93;;;;;;;;;;5015968;28;20186;-71
2023/04/23 10:17:09;;;;;;;4.17;2.80;;;;;;;;;;5033604;28;20182;-71
2023/04/23 10:19:39;;;;;;;7.87;3.40;;;;;;;;;;5033619;28;20210;-71
2023/04/23 10:22:07;;;;;;;5.20;3.03;;;;;;;;;;5033546;28;20185;-71
2023/04/23 10:24:34;;;;;;;12.37;4.47;;;;;;;;;;5015839;28;20668;-71
2023/04/23 10:27:01;;;;;;;10.20;3.93;;;;;;;;;;5015953;28;20197;-71
2023/04/23 10:29:28;;;;;;;7.30;3.50;;;;;;;;;;5015835;28;20248;-71
2023/04/23 10:32:01;;;;;;;6.20;3.23;;;;;;;;;;5016089;28;20187;-71
2023/04/23 10:34:28;;;;;;;7.07;3.37;;;;;;;;;;5015854;28;20182;-71
2023/04/23 10:36:56;;;;;;;5.17;3.53;;;;;;;;;;5015908;28;20179;-71
2023/04/23 10:39:23;;;;;;;8.57;3.00;;;;;;;;;;5033739;28;20238;-71
2023/04/23 10:41:49;;;;;;;8.40;2.87;;;;;;;;;;5033494;28;20253;-71
2023/04/23 10:44:20;;;;;;;7.27;3.13;;;;;;;;;;5015806;28;20197;-71
2023/04/23 10:46:56;;;;;;;5.67;2.77;;;;;;;;;;5015856;28;20171;-72
2023/04/23 10:49:23;;;;;;;6.77;2.80;;;;;;;;;;5015517;28;20217;-71
2023/04/23 10:51:49;;;;;;;4.73;3.20;;;;;;;;;;5033073;28;20182;-71
2023/04/23 10:54:15;;;;;;;8.10;2.70;;;;;;;;;;5033243;28;20175;-71
2023/04/23 10:56:41;;;;;;;5.43;2.80;;;;;;;;;;5033512;28;20201;-73
2023/04/23 10:59:17;;;;;;;4.70;2.80;;;;;;;;;;5033346;28;20553;-71
2023/04/23 11:01:45;;;;;;;4.07;2.87;;;;;;;;;;5033180;28;20174;-71
2023/04/23 11:04:24;;;;;;;6.43;2.40;;;;;;;;;;5015365;28;20183;-71
2023/04/23 11:06:51;;;;;;;3.70;2.00;;;;;;;;;;5015511;28;20269;-71
2023/04/23 11:09:36;;;;;;;3.73;2.43;;;;;;;;;;5015341;28;20713;-71
2023/04/23 11:12:05;;;;;;;3.53;2.77;;;;;;;;;;5015423;28;20232;-71
2023/04/23 11:14:48;;;;;;;3.60;2.23;;;;;;;;;;5015288;28;20704;-73
2023/04/23 11:17:15;;;;;;;4.80;2.50;;;;;;;;;;5032995;28;20258;-71
2023/04/23 11:19:42;;;;;;;5.90;2.30;;;;;;;;;;5033000;28;20598;-71
2023/04/23 11:22:18;;;;;;;2.73;2.00;;;;;;;;;;5015363;28;20182;-71
2023/04/23 11:24:45;;;;;;;6.67;2.20;;;;;;;;;;5015068;28;20171;-72
2023/04/23 11:27:12;;;;;;;2.53;1.60;;;;;;;;;;5015614;28;20186;-71
2023/04/23 11:29:39;;;;;;;3.10;1.90;;;;;;;;;;5033337;28;20293;-72
2023/04/23 11:32:12;;;;;;;6.03;2.53;;;;;;;;;;5015531;28;20539;-71
2023/04/23 11:34:45;;;;;;;4.90;2.17;;;;;;;;;;5015736;28;20175;-72
2023/04/23 11:37:12;;;;;;;3.57;1.80;;;;;;;;;;5015856;28;20241;-72
2023/04/23 11:39:42;;;;;;;3.97;2.20;;;;;;;;;;5033593;28;20239;-69
2023/04/23 11:42:12;;;;;;;5.43;2.17;;;;;;;;;;5032849;28;20179;-71
2023/04/23 11:44:40;;;;;;;4.70;1.90;;;;;;;;;;5033114;28;20175;-71
2023/04/23 11:47:07;;;;;;;3.97;1.80;;;;;;;;;;5015232;28;20195;-70
2023/04/23 11:49:33;;;;;;;3.73;1.90;;;;;;;;;;5032900;28;20594;-70
2023/04/23 11:52:00;;;;;;;4.73;2.33;;;;;;;;;;5032961;28;20179;-70
2023/04/23 11:54:28;;;;;;;4.77;2.07;;;;;;;;;;5033215;28;20638;-70
2023/04/23 11:56:54;;;;;;;4.13;1.70;;;;;;;;;;5015407;28;20179;-71
2023/04/23 11:59:20;;;;;;;5.67;2.00;;;;;;;;;;5015144;28;20215;-71
2023/04/23 12:01:47;;;;;;;2.73;1.60;;;;;;;;;;5034140;28;20179;-71
2023/04/23 12:04:14;;;;;;;7.07;2.47;;;;;;;;;;5036480;28;20183;-71
2023/04/23 12:06:41;;;;;;;4.77;1.60;;;;;;;;;;5018504;28;20206;-71
2023/04/23 12:09:09;;;;;;;5.50;1.93;;;;;;;;;;5035678;28;20234;-71
2023/04/23 12:11:35;;;;;;;3.67;2.03;;;;;;;;;;5018098;28;20536;-71
2023/04/23 12:14:01;;;;;;;3.20;1.90;;;;;;;;;;5036002;28;20641;-71
2023/04/23 12:16:36;;;;;;;4.73;1.70;;;;;;;;;;5018166;28;20194;-71
2023/04/23 12:19:02;;;;;;;6.00;1.97;;;;;;;;;;5035909;28;20206;-71
2023/04/23 12:21:28;;;;;;;6.30;2.17;;;;;;;;;;5035857;28;20187;-71
2023/04/23 12:23:56;;;;;;;4.70;2.10;;;;;;;;;;5017846;28;20182;-71
2023/04/23 12:26:23;;;;;;;3.07;1.63;;;;;;;;;;5036501;28;20179;-71
2023/04/23 12:28:50;;;;;;;3.60;1.70;;;;;;;;;;5035929;28;20214;-73
2023/04/23 12:31:20;;;;;;;2.90;1.60;;;;;;;;;;5036573;28;20526;-71
2023/04/23 12:33:46;;;;;;;3.50;1.83;;;;;;;;;;5018263;28;20179;-71
2023/04/23 12:36:15;;;;;;;5.30;1.90;;;;;;;;;;5035811;28;20178;-72
2023/04/23 12:38:41;;;;;;;4.97;2.00;;;;;;;;;;5035503;28;20219;-72
2023/04/23 12:41:07;;;;;;;4.27;2.07;;;;;;;;;;5036060;28;20190;-70
2023/04/23 12:43:33;;;;;;;3.63;1.80;;;;;;;;;;5018140;28;20179;-71
2023/04/23 12:45:59;;;;;;;4.03;1.70;;;;;;;;;;5018093;28;20190;-71
2023/04/23 12:48:25;;;;;;;4.80;2.03;;;;;;;;;;5017499;28;20219;-71
2023/04/23 12:50:51;;;;;;;3.00;1.87;;;;;;;;;;5035640;28;20198;-71
2023/04/23 12:53:18;;;;;;;4.03;2.03;;;;;;;;;;5017435;28;20194;-72
2023/04/23 12:55:44;;;;;;;6.33;2.03;;;;;;;;;;5035504;28;20171;-73
2023/04/23 12:58:10;;;;;;;6.67;1.87;;;;;;;;;;5017528;28;20570;-71
2023/04/23 13:00:36;;;;;;;4.27;1.60;;;;;;;;;;5017714;28;20568;-71
2023/04/23 13:03:02;;;;;;;4.93;2.20;;;;;;;;;;5035439;28;20266;-71
2023/04/23 13:05:28;;;;;;;5.20;1.90;;;;;;;;;;5017507;28;20222;-71
2023/04/23 13:07:54;;;;;;;3.63;2.00;;;;;;;;;;5035032;28;20242;-71
2023/04/23 13:10:20;;;;;;;5.73;2.00;;;;;;;;;;5035386;28;20179;-71
2023/04/23 13:12:46;;;;;;;4.43;2.10;;;;;;;;;;5016665;28;20191;-70
2023/04/23 13:15:12;;;;;;;3.80;1.90;;;;;;;;;;5035234;28;20172;-71
2023/04/23 13:17:38;;;;;;;3.03;1.87;;;;;;;;;;5035318;28;20174;-73
2023/04/23 13:20:04;;;;;;;4.57;2.13;;;;;;;;;;5017448;28;20273;-71
2023/04/23 13:22:31;;;;;;;4.57;1.97;;;;;;;;;;5017129;28;20210;-72
2023/04/23 13:24:58;;;;;;;5.70;2.10;;;;;;;;;;5017001;28;20717;-71
2023/04/23 13:27:24;;;;;;;5.87;2.00;;;;;;;;;;5034744;28;20182;-71
2023/04/23 13:29:51;;;;;;;7.10;2.40;;;;;;;;;;5034621;28;20676;-71
2023/04/23 13:32:17;;;;;;;3.93;2.33;;;;;;;;;;5016681;28;20187;-71
2023/04/23 13:34:42;;;;;;;7.53;2.60;;;;;;;;;;5034439;28;20690;-71
2023/04/23 13:37:09;;;;;;;6.00;2.30;;;;;;;;;;5016614;28;20183;-71
2023/04/23 13:39:35;;;;;;;3.50;1.90;;;;;;;;;;5016312;28;20661;-71
2023/04/23 13:42:03;;;;;;;3.57;1.70;;;;;;;;;;5016585;28;20273;-71
2023/04/23 13:44:29;;;;;;;4.33;1.80;;;;;;;;;;5016326;28;20184;-71
2023/04/23 13:46:57;;;;;;;4.77;1.60;;;;;;;;;;5016301;28;20183;-70
2023/04/23 13:49:23;;;;;;;4.20;1.80;;;;;;;;;;5033687;28;20203;-71
2023/04/23 13:51:49;;;;;;;3.87;2.10;;;;;;;;;;5033852;28;20172;-72
2023/04/23 13:54:15;;;;;;;2.80;1.90;;;;;;;;;;5016230;28;20266;-71
2023/04/23 13:56:41;;;;;;;4.07;1.70;;;;;;;;;;5034321;28;20183;-71
2023/04/23 13:59:07;;;;;;;3.53;2.00;;;;;;;;;;5016082;28;20211;-72
2023/04/23 14:01:33;;;;;;;3.97;2.10;;;;;;;;;;5033621;28;20175;-71
2023/04/23 14:03:59;;;;;;;5.73;2.37;;;;;;;;;;5033691;28;20175;-71
2023/04/23 14:06:26;;;;;;;4.67;2.20;;;;;;;;;;5033666;28;20182;-71
2023/04/23 14:08:52;;;;;;;3.73;1.80;;;;;;;;;;5015738;28;20296;-71
2023/04/23 14:11:18;;;;;;;5.17;2.43;;;;;;;;;;5033698;28;20175;-71
2023/04/23 14:13:44;;;;;;;4.97;3.40;;;;;;;;;;5033489;28;20178;-71
2023/04/23 14:16:10;;;;;;;5.30;4.00;;;;;;;;;;5033807;28;20179;-71
2023/04/23 14:18:36;;;;;;;7.90;4.83;;;;;;;;;;5015919;28;20301;-71
2023/04/23 14:21:01;;;;;;;6.93;5.00;;;;;;;;;;5033527;28;20179;-71
2023/04/23 14:23:43;;;;;;;6.53;3.30;;;;;;;;;;5033697;28;20182;-71